Time;durP1;ratioP1;P1;durP2;ratioP2;P2;SDS_P1;SDS_P2;PMS_P1;PMS_P2;Temp;Humidity;BMP_temperature;BMP_pressure;BME280_temperature;BME280_humidity;BME280_pressure;Samples;Min_cycle;Max_cycle;Signal;HPM_P1;HPM_P2
2023/10/17 04:01:26;;;;;;;;;;;6.30;99.90;;;;;;5515635;23;19926;-65
2023/10/17 04:03:53;;;;;;;;;;;6.30;99.90;;;;;;4977627;28;19937;-66
2023/10/17 04:06:32;;;;;;;;;;;6.30;99.90;;;;;;4978489;28;19910;-65
2023/10/17 04:09:15;;;;;;;;;;;6.30;99.90;;;;;;4980292;28;19915;-66
2023/10/17 04:11:43;;;;;;;;;;;6.30;99.90;;;;;;4979280;28;19910;-65
2023/10/17 04:14:10;;;;;;;;;;;6.30;99.90;;;;;;4979307;28;19914;-65
2023/10/17 04:16:39;;;;;;;;;;;6.30;99.90;;;;;;4978761;28;20284;-65
2023/10/17 04:19:07;;;;;;;;;;;6.30;99.90;;;;;;4979558;28;19968;-65
2023/10/17 04:21:37;;;;;;;;;;;6.30;99.90;;;;;;4977953;28;19941;-65
2023/10/17 04:24:06;;;;;;;;;;;6.20;99.90;;;;;;4979762;28;19910;-65
2023/10/17 04:26:35;;;;;;;;;;;6.20;99.90;;;;;;4979364;28;19961;-65
2023/10/17 04:29:11;;;;;;;;;;;6.20;99.90;;;;;;4976819;28;19910;-65
2023/10/17 04:31:37;;;;;;;;;;;6.20;99.90;;;;;;4977198;28;19925;-65
2023/10/17 04:34:14;;;;;;;;;;;6.30;99.90;;;;;;4978066;28;19910;-65
2023/10/17 04:36:40;;;;;;;;;;;6.40;99.90;;;;;;4977879;28;19920;-65
2023/10/17 04:39:25;;;;;;;;;;;6.40;99.90;;;;;;4978024;28;19933;-64
2023/10/17 04:44:17;;;;;;;;;;;6.40;99.90;;;;;;4977664;28;19910;-65
2023/10/17 04:46:50;;;;;;;;;;;6.40;99.90;;;;;;4977442;28;20009;-64
2023/10/17 04:49:20;;;;;;;;;;;6.40;99.90;;;;;;4976891;28;19939;-64
2023/10/17 04:51:51;;;;;;;;;;;6.40;99.90;;;;;;4975293;28;19918;-64
2023/10/17 04:54:29;;;;;;;;;;;6.40;99.90;;;;;;4976763;28;19914;-64
2023/10/17 04:57:02;;;;;;;;;;;6.50;99.90;;;;;;4977004;28;19910;-63
2023/10/17 04:59:41;;;;;;;;;;;6.50;99.90;;;;;;4976845;28;20005;-63
2023/10/17 05:07:30;;;;;;;;;;;6.50;99.90;;;;;;4957331;28;19917;-63
2023/10/17 06:18:27;;;;;;;;;;;6.40;99.90;;;;;;4975222;28;19917;-63
2023/10/17 06:21:18;;;;;;;;;;;6.50;99.90;;;;;;4975215;28;19911;-63
2023/10/17 06:27:11;;;;;;;;;;;6.50;99.90;;;;;;4975654;28;19910;-63
2023/10/17 06:34:17;;;;;;;;;;;6.60;99.90;;;;;;4975179;28;19914;-64
2023/10/17 06:36:43;;;;;;;;;;;6.60;99.90;;;;;;4975186;28;19911;-64
2023/10/17 06:39:19;;;;;;;;;;;6.60;99.90;;;;;;4974858;28;20041;-63
2023/10/17 06:41:45;;;;;;;;;;;6.70;99.90;;;;;;4974708;28;19961;-63
2023/10/17 06:44:15;;;;;;;;;;;6.70;99.90;;;;;;4974958;28;20308;-63
2023/10/17 06:46:48;;;;;;;;;;;6.80;99.90;;;;;;4974973;28;19910;-63
2023/10/17 06:49:30;;;;;;;;;;;6.90;99.90;;;;;;4975369;28;20277;-63
2023/10/17 06:52:18;;;;;;;;;;;6.90;99.90;;;;;;4979507;28;20001;-63
2023/10/17 06:55:06;;;;;;;;;;;7.00;99.90;;;;;;4979681;28;19910;-63
2023/10/17 06:57:33;;;;;;;;;;;7.00;99.90;;;;;;4979295;28;19976;-63
2023/10/17 07:00:15;;;;;;;;;;;7.10;99.90;;;;;;4979295;28;19910;-63
2023/10/17 07:02:43;;;;;;;;;;;7.10;99.90;;;;;;4977453;28;19961;-63
2023/10/17 07:05:08;;;;;;;;;;;7.20;99.90;;;;;;4978322;28;19910;-63
2023/10/17 07:07:42;;;;;;;;;;;7.20;99.90;;;;;;4978571;28;20029;-63
2023/10/17 07:10:24;;;;;;;;;;;7.20;99.90;;;;;;4978487;28;19910;-63
2023/10/17 07:13:12;;;;;;;;;;;7.30;99.90;;;;;;4978492;28;20391;-62
2023/10/17 07:15:39;;;;;;;;;;;7.30;99.90;;;;;;4978055;28;19929;-63
2023/10/17 07:23:37;;;;;;;;;;;7.60;99.90;;;;;;4979197;28;20284;-63
2023/10/17 07:26:05;;;;;;;;;;;7.60;99.90;;;;;;4979124;28;19938;-63
2023/10/17 07:28:42;;;;;;;;;;;7.80;99.90;;;;;;4977597;28;19921;-63
2023/10/17 07:31:10;;;;;;;;;;;7.90;99.90;;;;;;4978259;28;20436;-64
2023/10/17 07:33:36;;;;;;;;;;;7.90;99.90;;;;;;4977999;28;19911;-64
2023/10/17 07:36:03;;;;;;;;;;;8.00;99.90;;;;;;4977586;28;19925;-63
2023/10/17 07:38:28;;;;;;;;;;;8.00;99.90;;;;;;4978068;28;19934;-62
2023/10/17 07:41:13;;;;;;;;;;;8.00;99.90;;;;;;4977929;28;19910;-63
2023/10/17 07:43:44;;;;;;;;;;;8.00;99.90;;;;;;4978665;28;19921;-63
2023/10/17 07:46:16;;;;;;;;;;;8.10;99.90;;;;;;4978176;28;19910;-63
2023/10/17 07:48:48;;;;;;;;;;;8.10;99.90;;;;;;4978960;28;19910;-63
2023/10/17 07:51:14;;;;;;;;;;;8.10;99.90;;;;;;4979040;28;19911;-63
2023/10/17 07:53:45;;;;;;;;;;;8.10;99.90;;;;;;4980368;28;19969;-63
2023/10/17 07:56:20;;;;;;;;;;;8.20;99.90;;;;;;4978793;28;19910;-63
2023/10/17 07:58:46;;;;;;;;;;;8.30;99.90;;;;;;4979381;28;19914;-63
2023/10/17 08:01:15;;;;;;;;;;;8.40;99.90;;;;;;4978649;28;19949;-64
2023/10/17 08:03:41;;;;;;;;;;;8.40;99.90;;;;;;4978217;28;19921;-64
2023/10/17 08:06:08;;;;;;;;;;;8.50;99.90;;;;;;4978647;28;19910;-64
2023/10/17 08:08:34;;;;;;;;;;;8.60;99.90;;;;;;4978654;28;19910;-64
2023/10/17 08:11:01;;;;;;;;;;;8.70;99.90;;;;;;4977958;28;19918;-64
2023/10/17 08:13:28;;;;;;;;;;;8.80;99.90;;;;;;4978043;28;19949;-64
2023/10/17 08:16:04;;;;;;;;;;;8.80;99.90;;;;;;4978577;28;19910;-63
2023/10/17 08:18:39;;;;;;;;;;;8.90;99.90;;;;;;4978304;28;19914;-63
2023/10/17 08:23:49;;;;;;;;;;;8.90;99.90;;;;;;4977981;28;19917;-63
2023/10/17 08:26:17;;;;;;;;;;;8.80;99.90;;;;;;4978222;28;19910;-62
2023/10/17 08:31:27;;;;;;;;;;;9.00;99.90;;;;;;4977846;28;19910;-64
2023/10/17 08:36:42;;;;;;;;;;;9.10;99.90;;;;;;4978522;28;19910;-63
2023/10/17 08:39:26;;;;;;;;;;;9.20;99.90;;;;;;4977529;28;19917;-63
2023/10/17 08:42:14;;;;;;;;;;;9.30;99.90;;;;;;4976712;28;19937;-63
2023/10/17 08:44:43;;;;;;;;;;;9.40;99.90;;;;;;4976420;28;20202;-63
2023/10/17 08:47:16;;;;;;;;;;;9.50;99.90;;;;;;4975781;28;20393;-63
2023/10/17 08:49:45;;;;;;;;;;;9.50;99.90;;;;;;4976895;28;19961;-63
2023/10/17 08:52:23;;;;;;;;;;;9.50;99.90;;;;;;4977479;28;19918;-63
2023/10/17 08:54:48;;;;;;;;;;;9.50;99.90;;;;;;4978433;28;19953;-63
2023/10/17 08:57:14;;;;;;;;;;;9.40;99.90;;;;;;4979426;28;20373;-64
2023/10/17 09:02:15;;;;;;;;;;;9.40;99.90;;;;;;4977813;28;19918;-62
2023/10/17 09:04:42;;;;;;;;;;;9.40;99.90;;;;;;4977173;28;19914;-63
2023/10/17 09:07:09;;;;;;;;;;;9.40;99.90;;;;;;4977989;28;19910;-63
2023/10/17 09:09:34;;;;;;;;;;;9.40;99.90;;;;;;4977811;28;19911;-64
2023/10/17 09:12:19;;;;;;;;;;;9.50;99.90;;;;;;4976164;28;19914;-62
2023/10/17 09:14:48;;;;;;;;;;;9.40;99.90;;;;;;4975139;28;19910;-63
2023/10/17 09:17:17;;;;;;;;;;;9.60;99.90;;;;;;4975999;28;19945;-63
2023/10/17 09:19:46;;;;;;;;;;;9.60;99.90;;;;;;4975712;28;19911;-62
2023/10/17 09:22:14;;;;;;;;;;;9.80;99.90;;;;;;4976469;28;19914;-62
2023/10/17 09:24:40;;;;;;;;;;;9.80;99.90;;;;;;4977324;28;20005;-64
2023/10/17 09:27:15;;;;;;;;;;;9.80;99.90;;;;;;4977040;28;20361;-64
2023/10/17 09:29:55;;;;;;;;;;;9.80;99.90;;;;;;4977697;28;20345;-63
2023/10/17 09:32:32;;;;;;;;;;;9.90;99.90;;;;;;4977366;28;19918;-64
2023/10/17 09:35:00;;;;;;;;;;;10.00;99.90;;;;;;4976826;28;19910;-63
2023/10/17 09:37:27;;;;;;;;;;;10.00;99.90;;;;;;4977889;28;19910;-63
2023/10/17 09:39:54;;;;;;;;;;;10.00;99.90;;;;;;4975733;28;19910;-62
2023/10/17 09:42:20;;;;;;;;;;;10.10;99.90;;;;;;4977421;28;19933;-64
2023/10/17 09:44:45;;;;;;;;;;;10.20;99.90;;;;;;4977299;28;19918;-62
2023/10/17 09:47:13;;;;;;;;;;;10.30;99.90;;;;;;4977578;28;20448;-63
2023/10/17 09:49:44;;;;;;;;;;;10.40;99.90;;;;;;4977080;28;20296;-63
2023/10/17 09:52:10;;;;;;;;;;;10.50;99.90;;;;;;4977916;28;20071;-63
2023/10/17 09:54:36;;;;;;;;;;;10.60;99.90;;;;;;4978364;28;19945;-62
2023/10/17 09:57:02;;;;;;;;;;;10.70;99.90;;;;;;4977594;28;19910;-63
2023/10/17 09:59:34;;;;;;;;;;;10.80;99.90;;;;;;4977307;28;19910;-63
2023/10/17 10:02:00;;;;;;;;;;;11.00;99.90;;;;;;4976847;28;19918;-63
2023/10/17 10:04:25;;;;;;;;;;;11.20;99.90;;;;;;4976169;28;19914;-64
2023/10/17 10:07:11;;;;;;;;;;;11.40;99.90;;;;;;4976857;28;19917;-64
2023/10/17 10:09:36;;;;;;;;;;;11.50;99.90;;;;;;4976969;28;20280;-62
2023/10/17 10:12:02;;;;;;;;;;;11.80;99.90;;;;;;4982401;28;19953;-64
2023/10/17 10:14:27;;;;;;;;;;;11.80;99.90;;;;;;4983165;28;19981;-64
2023/10/17 10:16:54;;;;;;;;;;;11.60;99.90;;;;;;4982768;28;19910;-64
2023/10/17 10:19:21;;;;;;;;;;;11.60;99.90;;;;;;4980160;28;20413;-64
2023/10/17 10:21:54;;;;;;;;;;;11.60;99.90;;;;;;4979533;28;20066;-64
2023/10/17 10:24:26;;;;;;;;;;;11.80;99.90;;;;;;4979630;28;19961;-64
2023/10/17 10:27:10;;;;;;;;;;;12.00;99.90;;;;;;4977702;28;19910;-64
2023/10/17 10:29:36;;;;;;;;;;;12.10;99.90;;;;;;4979223;28;19910;-64
2023/10/17 10:32:07;;;;;;;;;;;12.40;99.90;;;;;;4976891;28;19916;-64
2023/10/17 10:34:36;;;;;;;;;;;12.70;99.90;;;;;;4976175;28;20214;-65
2023/10/17 10:37:03;;;;;;;;;;;12.80;99.60;;;;;;4975378;28;19910;-64
2023/10/17 10:39:30;;;;;;;;;;;12.80;99.70;;;;;;4975615;28;19910;-65
2023/10/17 10:42:07;;;;;;;;;;;12.80;99.80;;;;;;4975376;28;20365;-65
2023/10/17 10:44:41;;;;;;;;;;;12.50;99.90;;;;;;4975763;28;19956;-65
2023/10/17 10:47:07;;;;;;;;;;;12.50;99.90;;;;;;4975275;28;20353;-64
2023/10/17 10:49:33;;;;;;;;;;;12.40;99.90;;;;;;4975651;28;19911;-64
2023/10/17 10:51:58;;;;;;;;;;;12.50;99.90;;;;;;4975162;28;19980;-64
2023/10/17 10:54:27;;;;;;;;;;;12.30;99.90;;;;;;4975442;28;19961;-65
2023/10/17 10:56:52;;;;;;;;;;;12.10;99.90;;;;;;4975192;28;20440;-64
2023/10/17 10:59:21;;;;;;;;;;;11.90;99.90;;;;;;4975555;28;19960;-65
2023/10/17 11:01:47;;;;;;;;;;;11.80;99.90;;;;;;4975103;28;19918;-64
2023/10/17 11:04:13;;;;;;;;;;;11.80;99.90;;;;;;4975668;28;19917;-64
2023/10/17 11:06:40;;;;;;;;;;;11.90;99.90;;;;;;4975430;28;20288;-63
2023/10/17 11:09:09;;;;;;;;;;;12.00;99.90;;;;;;4973587;28;20282;-64
2023/10/17 11:11:44;;;;;;;;;;;12.00;99.90;;;;;;4975125;28;19910;-65
2023/10/17 11:14:14;;;;;;;;;;;12.00;99.90;;;;;;4975381;28;20027;-65
2023/10/17 11:16:39;;;;;;;;;;;12.00;99.90;;;;;;4975252;28;19921;-64
2023/10/17 11:19:09;;;;;;;;;;;11.90;99.90;;;;;;4974911;28;20416;-64
2023/10/17 11:21:34;;;;;;;;;;;11.80;99.90;;;;;;4974536;28;19914;-64
2023/10/17 11:24:04;;;;;;;;;;;11.50;99.90;;;;;;4975681;28;20245;-64
2023/10/17 11:26:32;;;;;;;;;;;11.30;99.90;;;;;;4974035;28;19910;-64
2023/10/17 11:28:58;;;;;;;;;;;11.40;99.90;;;;;;4975734;28;20266;-65
2023/10/17 11:31:24;;;;;;;;;;;11.50;99.90;;;;;;4975369;28;19952;-64
2023/10/17 11:34:12;;;;;;;;;;;11.70;99.90;;;;;;4975998;28;20357;-64
2023/10/17 11:36:45;;;;;;;;;;;11.70;99.90;;;;;;4975296;28;19910;-64
2023/10/17 11:39:15;;;;;;;;;;;11.60;99.90;;;;;;4983608;28;19914;-64
2023/10/17 11:41:48;;;;;;;;;;;11.60;99.90;;;;;;4982972;28;19925;-64
2023/10/17 11:44:15;;;;;;;;;;;11.50;99.90;;;;;;4982752;28;19917;-64
2023/10/17 11:46:55;;;;;;;;;;;11.50;99.90;;;;;;4982799;28;20000;-64
2023/10/17 11:49:21;;;;;;;;;;;11.50;99.90;;;;;;4983526;28;20365;-64
2023/10/17 11:51:48;;;;;;;;;;;11.50;99.90;;;;;;4981586;28;19910;-64
2023/10/17 11:54:13;;;;;;;;;;;11.70;99.90;;;;;;4983323;28;19910;-64
2023/10/17 11:56:39;;;;;;;;;;;11.90;99.90;;;;;;4984551;28;19933;-64
2023/10/17 11:59:08;;;;;;;;;;;12.00;99.90;;;;;;4985148;28;19927;-64
2023/10/17 12:01:33;;;;;;;;;;;12.00;99.90;;;;;;4983394;28;19941;-64
2023/10/17 12:04:00;;;;;;;;;;;12.00;99.90;;;;;;4984555;28;20389;-64
2023/10/17 12:06:26;;;;;;;;;;;12.20;99.90;;;;;;4982110;28;19978;-64
2023/10/17 12:08:55;;;;;;;;;;;12.30;99.90;;;;;;4981709;28;20028;-63
2023/10/17 12:11:21;;;;;;;;;;;12.40;99.90;;;;;;4979951;28;19921;-64
2023/10/17 12:13:46;;;;;;;;;;;12.30;99.90;;;;;;4978869;28;19917;-65
2023/10/17 12:16:13;;;;;;;;;;;12.30;99.90;;;;;;4980634;28;19910;-64
2023/10/17 12:18:38;;;;;;;;;;;12.20;99.90;;;;;;4981763;28;19933;-65
2023/10/17 12:21:14;;;;;;;;;;;12.20;99.90;;;;;;4982603;28;19910;-64
2023/10/17 12:23:40;;;;;;;;;;;12.10;99.90;;;;;;4984051;28;20372;-64
2023/10/17 12:26:13;;;;;;;;;;;12.10;99.90;;;;;;4983628;28;19941;-64
2023/10/17 12:28:43;;;;;;;;;;;12.00;99.90;;;;;;4983772;28;19910;-64
2023/10/17 12:31:09;;;;;;;;;;;12.10;99.90;;;;;;4983764;28;20310;-64
2023/10/17 12:33:36;;;;;;;;;;;12.20;99.90;;;;;;4983034;28;19973;-64
2023/10/17 12:36:05;;;;;;;;;;;12.30;99.90;;;;;;4983107;28;19914;-64
2023/10/17 12:38:34;;;;;;;;;;;12.40;99.90;;;;;;4980956;28;20393;-64
2023/10/17 12:41:00;;;;;;;;;;;12.30;99.90;;;;;;4978069;28;19910;-64
2023/10/17 12:43:27;;;;;;;;;;;12.30;99.90;;;;;;4980202;28;19914;-65
2023/10/17 12:45:54;;;;;;;;;;;12.30;99.90;;;;;;4978939;28;19917;-64
2023/10/17 12:48:20;;;;;;;;;;;12.30;99.90;;;;;;4979097;28;20289;-64
2023/10/17 12:50:45;;;;;;;;;;;12.30;99.90;;;;;;4979593;28;19911;-64
2023/10/17 12:53:11;;;;;;;;;;;12.20;99.90;;;;;;4981701;28;19912;-64
2023/10/17 12:55:38;;;;;;;;;;;12.30;99.90;;;;;;4980735;28;20009;-64
2023/10/17 12:58:04;;;;;;;;;;;12.30;99.90;;;;;;4977742;28;19911;-64
2023/10/17 13:00:30;;;;;;;;;;;12.40;99.90;;;;;;4978999;28;19914;-64
2023/10/17 13:02:56;;;;;;;;;;;12.50;99.90;;;;;;4979373;28;19922;-64
2023/10/17 13:05:21;;;;;;;;;;;12.60;99.90;;;;;;4979568;28;19910;-65
2023/10/17 13:07:47;;;;;;;;;;;12.60;99.90;;;;;;4979777;28;19967;-65
2023/10/17 13:10:13;;;;;;;;;;;12.70;99.90;;;;;;4977362;28;19910;-64
2023/10/17 13:12:41;;;;;;;;;;;12.60;99.90;;;;;;4979373;28;19917;-64
2023/10/17 13:15:08;;;;;;;;;;;12.60;99.90;;;;;;4979775;28;19910;-64
2023/10/17 13:17:34;;;;;;;;;;;12.50;99.90;;;;;;4978439;28;19916;-65
2023/10/17 13:20:07;;;;;;;;;;;12.50;99.90;;;;;;4977868;28;19911;-66
2023/10/17 13:22:36;;;;;;;;;;;12.60;99.90;;;;;;4977613;28;19961;-65
2023/10/17 13:25:03;;;;;;;;;;;12.50;99.90;;;;;;4978159;28;20347;-65
2023/10/17 13:27:28;;;;;;;;;;;12.60;99.90;;;;;;4977901;28;19996;-65
2023/10/17 13:29:54;;;;;;;;;;;12.70;99.90;;;;;;4978143;28;20409;-65
2023/10/17 13:32:19;;;;;;;;;;;12.60;99.90;;;;;;4977088;28;19910;-64
2023/10/17 13:34:46;;;;;;;;;;;12.60;99.90;;;;;;4977004;28;19911;-63
2023/10/17 13:37:12;;;;;;;;;;;12.60;99.90;;;;;;4976536;28;19933;-65
2023/10/17 13:39:37;;;;;;;;;;;12.70;99.90;;;;;;4977560;28;19910;-64
2023/10/17 13:42:03;;;;;;;;;;;12.80;99.90;;;;;;4977291;28;19914;-64
2023/10/17 13:44:29;;;;;;;;;;;12.90;99.90;;;;;;4978122;28;19910;-65
2023/10/17 13:46:55;;;;;;;;;;;13.00;99.90;;;;;;4977582;28;20399;-65
2023/10/17 13:49:21;;;;;;;;;;;13.20;99.90;;;;;;4977194;28;19914;-65
2023/10/17 13:51:47;;;;;;;;;;;13.30;99.90;;;;;;4977193;28;20000;-65
2023/10/17 13:54:16;;;;;;;;;;;13.20;99.90;;;;;;4976717;28;19953;-63
2023/10/17 13:56:42;;;;;;;;;;;13.10;99.90;;;;;;4977249;28;19910;-65
2023/10/17 13:59:09;;;;;;;;;;;13.10;99.90;;;;;;4978156;28;19910;-66
2023/10/17 14:01:47;;;;;;;;;;;13.10;99.90;;;;;;4976451;28;20254;-65
2023/10/17 14:04:12;;;;;;;;;;;13.10;99.90;;;;;;4976390;28;20361;-64
2023/10/17 14:06:45;;;;;;;;;;;13.00;99.90;;;;;;4975208;28;19973;-65
2023/10/17 14:09:17;;;;;;;;;;;13.10;99.90;;;;;;4976737;28;20404;-64
2023/10/17 14:11:43;;;;;;;;;;;13.10;99.90;;;;;;4974986;28;19917;-64
2023/10/17 14:14:10;;;;;;;;;;;13.10;99.90;;;;;;4975911;28;19972;-64
2023/10/17 14:16:40;;;;;;;;;;;13.10;99.90;;;;;;4976561;28;19914;-62
2023/10/17 14:19:28;;;;;;;;;;;13.00;99.90;;;;;;4977590;28;19910;-63
2023/10/17 14:22:04;;;;;;;;;;;13.00;99.90;;;;;;4976249;28;19914;-63
2023/10/17 14:24:49;;;;;;;;;;;12.90;99.90;;;;;;4976363;28;19997;-63
2023/10/17 14:27:21;;;;;;;;;;;12.80;99.90;;;;;;4976764;28;19914;-66
2023/10/17 14:29:47;;;;;;;;;;;12.60;99.90;;;;;;4976430;28;19910;-66
2023/10/17 14:32:15;;;;;;;;;;;12.50;99.90;;;;;;4976778;28;19910;-66
2023/10/17 14:34:41;;;;;;;;;;;12.60;99.90;;;;;;4977724;28;19921;-63
2023/10/17 14:37:07;;;;;;;;;;;12.60;99.90;;;;;;4977473;28;19910;-61
2023/10/17 14:39:33;;;;;;;;;;;12.60;99.90;;;;;;4977824;28;19917;-63
2023/10/17 14:41:59;;;;;;;;;;;12.50;99.90;;;;;;4977238;28;19925;-62
2023/10/17 14:44:24;;;;;;;;;;;12.50;99.90;;;;;;4977138;28;19910;-61
2023/10/17 14:46:53;;;;;;;;;;;12.50;99.90;;;;;;4976895;28;20009;-61
2023/10/17 14:49:19;;;;;;;;;;;12.50;99.90;;;;;;4976455;28;19911;-65
2023/10/17 14:51:45;;;;;;;;;;;12.40;99.90;;;;;;4974686;28;19961;-62
2023/10/17 14:54:13;;;;;;;;;;;12.40;99.90;;;;;;4977239;28;19921;-64
2023/10/17 14:56:39;;;;;;;;;;;12.30;99.90;;;;;;4976988;28;19986;-64
2023/10/17 14:59:05;;;;;;;;;;;12.20;99.90;;;;;;4976216;28;19973;-64
2023/10/17 15:01:30;;;;;;;;;;;12.10;99.90;;;;;;4975467;28;19992;-63
2023/10/17 15:03:58;;;;;;;;;;;12.10;99.90;;;;;;4973072;28;19946;-63
2023/10/17 15:06:23;;;;;;;;;;;12.10;99.90;;;;;;4972668;28;19932;-64
2023/10/17 15:08:49;;;;;;;;;;;12.00;99.90;;;;;;4975982;28;20396;-64
2023/10/17 15:11:15;;;;;;;;;;;12.00;99.90;;;;;;4976113;28;20012;-63
2023/10/17 15:13:40;;;;;;;;;;;12.00;99.90;;;;;;4981073;28;19961;-63
2023/10/17 15:16:13;;;;;;;;;;;11.90;99.90;;;;;;4982122;28;20365;-65
2023/10/17 15:18:39;;;;;;;;;;;11.80;99.90;;;;;;4980554;28;20456;-65
2023/10/17 15:21:08;;;;;;;;;;;11.80;99.90;;;;;;4979699;28;19914;-64
2023/10/17 15:23:34;;;;;;;;;;;11.80;99.90;;;;;;4982951;28;19914;-64
2023/10/17 15:26:00;;;;;;;;;;;11.80;99.90;;;;;;4983036;28;20389;-65
2023/10/17 15:28:25;;;;;;;;;;;11.70;99.90;;;;;;4982476;28;19910;-63
2023/10/17 15:30:52;;;;;;;;;;;11.70;99.90;;;;;;4982776;28;19997;-64
2023/10/17 15:33:19;;;;;;;;;;;11.60;99.90;;;;;;4983127;28;19934;-64
2023/10/17 15:35:45;;;;;;;;;;;11.60;99.90;;;;;;4970811;28;19986;-62
2023/10/17 15:38:11;;;;;;;;;;;11.50;99.90;;;;;;4965247;28;19914;-62
2023/10/17 15:40:36;;;;;;;;;;;11.60;99.90;;;;;;4964243;28;20393;-60
2023/10/17 15:43:02;;;;;;;;;;;11.50;99.90;;;;;;4964771;28;19915;-60
2023/10/17 15:45:28;;;;;;;;;;;11.40;99.90;;;;;;4963772;28;19910;-60
2023/10/17 15:47:54;;;;;;;;;;;11.40;99.90;;;;;;4964072;28;19916;-59
2023/10/17 15:50:22;;;;;;;;;;;11.40;99.90;;;;;;4962494;28;19918;-61
2023/10/17 15:52:51;;;;;;;;;;;11.40;99.90;;;;;;4962025;28;19911;-59
2023/10/17 15:55:17;;;;;;;;;;;11.30;99.90;;;;;;4961710;28;19934;-60
2023/10/17 15:57:43;;;;;;;;;;;11.30;99.90;;;;;;4959831;29;19911;-60
2023/10/17 16:00:19;;;;;;;;;;;11.20;99.90;;;;;;4962755;28;19919;-64
2023/10/17 16:02:45;;;;;;;;;;;11.20;99.90;;;;;;4962346;28;19929;-63
2023/10/17 16:05:11;;;;;;;;;;;11.20;99.90;;;;;;4974007;28;19914;-63
2023/10/17 16:07:40;;;;;;;;;;;11.20;99.90;;;;;;4980111;28;20292;-63
2023/10/17 16:10:09;;;;;;;;;;;11.20;99.90;;;;;;4980661;28;19993;-63
2023/10/17 16:12:35;;;;;;;;;;;11.10;99.90;;;;;;4979132;28;20054;-64
2023/10/17 16:15:01;;;;;;;;;;;11.10;99.90;;;;;;4979810;28;19921;-64
2023/10/17 16:17:28;;;;;;;;;;;11.00;99.90;;;;;;4979897;28;19932;-63
2023/10/17 16:19:54;;;;;;;;;;;11.00;99.90;;;;;;4980066;28;20345;-65
2023/10/17 16:22:19;;;;;;;;;;;10.90;99.90;;;;;;4979856;28;20280;-63
2023/10/17 16:24:45;;;;;;;;;;;10.80;99.90;;;;;;4979501;28;19976;-63
2023/10/17 16:27:11;;;;;;;;;;;10.80;99.90;;;;;;4980254;28;19979;-63
2023/10/17 16:29:36;;;;;;;;;;;10.80;99.90;;;;;;4980447;28;20440;-63
2023/10/17 16:32:02;;;;;;;;;;;10.80;99.90;;;;;;4978598;28;19956;-62
2023/10/17 16:34:28;;;;;;;;;;;10.70;99.90;;;;;;4981084;28;20000;-63
2023/10/17 16:36:53;;;;;;;;;;;10.70;99.90;;;;;;4980420;28;20007;-63
2023/10/17 16:39:20;;;;;;;;;;;10.60;99.90;;;;;;4980353;28;19918;-62
2023/10/17 16:41:46;;;;;;;;;;;10.60;99.90;;;;;;4981451;28;19914;-62
2023/10/17 16:44:13;;;;;;;;;;;10.60;99.90;;;;;;4982499;28;19932;-62
2023/10/17 16:46:41;;;;;;;;;;;10.60;99.90;;;;;;4981192;28;19910;-64
2023/10/17 16:49:06;;;;;;;;;;;10.50;99.90;;;;;;4981996;28;19910;-64
2023/10/17 16:51:32;;;;;;;;;;;10.50;99.90;;;;;;4982010;28;19964;-61
2023/10/17 16:53:57;;;;;;;;;;;10.50;99.90;;;;;;4983739;28;19982;-63
2023/10/17 16:56:23;;;;;;;;;;;10.40;99.90;;;;;;4982018;28;19911;-64
2023/10/17 16:58:48;;;;;;;;;;;10.40;99.90;;;;;;4981726;28;20348;-63
2023/10/17 17:01:15;;;;;;;;;;;10.40;99.90;;;;;;4980238;28;20353;-63
2023/10/17 17:03:41;;;;;;;;;;;10.30;99.90;;;;;;4981889;28;19928;-64
2023/10/17 17:06:06;;;;;;;;;;;10.30;99.90;;;;;;4982223;28;19910;-63
2023/10/17 17:08:32;;;;;;;;;;;10.30;99.90;;;;;;4982050;28;19910;-64
2023/10/17 17:10:58;;;;;;;;;;;10.30;99.90;;;;;;4982638;28;19917;-64
2023/10/17 17:13:23;;;;;;;;;;;10.20;99.90;;;;;;4981707;28;19910;-63
2023/10/17 17:15:49;;;;;;;;;;;10.30;99.90;;;;;;4982474;28;19997;-63
2023/10/17 17:18:14;;;;;;;;;;;10.20;99.90;;;;;;4982833;28;19914;-63
2023/10/17 17:20:40;;;;;;;;;;;10.20;99.90;;;;;;4982395;28;19961;-62
2023/10/17 17:23:07;;;;;;;;;;;10.20;99.90;;;;;;4981784;28;20012;-64
2023/10/17 17:25:36;;;;;;;;;;;10.20;99.90;;;;;;4976759;28;20829;-64
2023/10/17 17:28:01;;;;;;;;;;;10.10;99.90;;;;;;4979503;28;19910;-63
2023/10/17 17:30:28;;;;;;;;;;;10.20;99.90;;;;;;4966565;28;20022;-61
2023/10/17 17:32:55;;;;;;;;;;;10.10;99.90;;;;;;4983248;28;20289;-60
2023/10/17 17:35:21;;;;;;;;;;;10.10;99.90;;;;;;4977523;28;20345;-62
2023/10/17 17:37:46;;;;;;;;;;;10.10;99.90;;;;;;4977394;28;19968;-60
2023/10/17 17:40:12;;;;;;;;;;;10.10;99.90;;;;;;4981592;28;19917;-64
2023/10/17 17:42:37;;;;;;;;;;;10.00;99.90;;;;;;4980906;28;19925;-61
2023/10/17 17:45:04;;;;;;;;;;;10.00;99.90;;;;;;4978585;28;20071;-62
2023/10/17 17:47:29;;;;;;;;;;;10.00;99.90;;;;;;4975623;28;19910;-62
2023/10/17 17:49:55;;;;;;;;;;;10.00;99.90;;;;;;4982545;28;20298;-64
2023/10/17 17:52:20;;;;;;;;;;;10.00;99.90;;;;;;4969391;28;20021;-63
2023/10/17 17:54:46;;;;;;;;;;;10.00;99.90;;;;;;4977042;28;19922;-63
2023/10/17 17:57:12;;;;;;;;;;;10.00;99.90;;;;;;4979494;28;19932;-63
2023/10/17 17:59:42;;;;;;;;;;;10.00;99.90;;;;;;4979778;28;19960;-62
2023/10/17 18:02:07;;;;;;;;;;;10.00;99.90;;;;;;4980225;28;19965;-62
2023/10/17 18:04:33;;;;;;;;;;;10.00;99.90;;;;;;4979441;28;19910;-63
2023/10/17 18:06:58;;;;;;;;;;;9.90;99.90;;;;;;4979795;28;20296;-62
2023/10/17 18:09:24;;;;;;;;;;;10.00;99.90;;;;;;4980575;28;19960;-64
2023/10/17 18:11:49;;;;;;;;;;;9.90;99.90;;;;;;4979365;28;19910;-63
2023/10/17 18:14:17;;;;;;;;;;;9.90;99.90;;;;;;4979897;28;20016;-63
2023/10/17 18:16:43;;;;;;;;;;;9.90;99.90;;;;;;4981065;28;20285;-64
2023/10/17 18:19:09;;;;;;;;;;;9.90;99.90;;;;;;4982771;28;19945;-61
2023/10/17 18:21:35;;;;;;;;;;;9.90;99.90;;;;;;4979613;28;19914;-64
2023/10/17 18:24:01;;;;;;;;;;;9.90;99.90;;;;;;4981610;28;19914;-64
2023/10/17 18:26:27;;;;;;;;;;;9.80;99.90;;;;;;4977552;28;20293;-65
2023/10/17 18:28:53;;;;;;;;;;;9.80;99.90;;;;;;4978708;28;19910;-65
2023/10/17 18:31:19;;;;;;;;;;;9.80;99.90;;;;;;4976201;28;19923;-64
2023/10/17 18:33:46;;;;;;;;;;;9.80;99.90;;;;;;4972503;28;20077;-63
2023/10/17 18:36:12;;;;;;;;;;;9.80;99.90;;;;;;4972816;28;20008;-63
2023/10/17 18:38:38;;;;;;;;;;;9.80;99.90;;;;;;4974522;28;19926;-63
2023/10/17 18:41:04;;;;;;;;;;;9.70;99.90;;;;;;4958305;28;19910;-64
2023/10/17 18:43:29;;;;;;;;;;;9.70;99.90;;;;;;4958385;28;19915;-62
2023/10/17 18:45:55;;;;;;;;;;;9.70;99.90;;;;;;4961181;28;19935;-63
2023/10/17 18:48:21;;;;;;;;;;;9.70;99.90;;;;;;4966281;28;19989;-61
2023/10/17 18:50:48;;;;;;;;;;;9.70;99.90;;;;;;4963966;28;20333;-60
2023/10/17 18:53:15;;;;;;;;;;;9.60;99.90;;;;;;4966819;28;19918;-62
2023/10/17 18:55:42;;;;;;;;;;;9.60;99.90;;;;;;4967507;28;19915;-64
2023/10/17 18:58:08;;;;;;;;;;;9.60;99.90;;;;;;4966074;28;19910;-63
2023/10/17 19:00:35;;;;;;;;;;;9.60;99.90;;;;;;4962595;28;19918;-62
2023/10/17 19:03:01;;;;;;;;;;;9.50;99.90;;;;;;4963488;28;19925;-63
2023/10/17 19:05:26;;;;;;;;;;;9.50;99.90;;;;;;4978624;28;20004;-63
2023/10/17 19:07:52;;;;;;;;;;;9.50;99.90;;;;;;4982856;28;20265;-62
2023/10/17 19:10:19;;;;;;;;;;;9.50;99.90;;;;;;4984279;28;19997;-62
2023/10/17 19:12:44;;;;;;;;;;;9.50;99.90;;;;;;4984979;28;19993;-63
2023/10/17 19:15:12;;;;;;;;;;;9.50;99.90;;;;;;4985997;28;20386;-63
2023/10/17 19:17:38;;;;;;;;;;;9.50;99.90;;;;;;4987319;28;19933;-63
2023/10/17 19:20:06;;;;;;;;;;;9.40;99.90;;;;;;4988587;28;19942;-64
2023/10/17 19:22:31;;;;;;;;;;;9.40;99.90;;;;;;4986857;28;19918;-62
2023/10/17 19:24:57;;;;;;;;;;;9.40;99.90;;;;;;4986896;28;19910;-61
2023/10/17 19:27:22;;;;;;;;;;;9.50;99.90;;;;;;4987368;28;19910;-62
2023/10/17 19:29:48;;;;;;;;;;;9.40;99.90;;;;;;4986957;28;19912;-62
2023/10/17 19:32:14;;;;;;;;;;;9.40;99.90;;;;;;4986559;28;19945;-62
2023/10/17 19:34:43;;;;;;;;;;;9.40;99.90;;;;;;4984523;28;19993;-62
2023/10/17 19:37:14;;;;;;;;;;;9.40;99.90;;;;;;4985658;28;19917;-62
2023/10/17 19:39:43;;;;;;;;;;;9.30;99.90;;;;;;4986766;28;19910;-63
2023/10/17 19:42:09;;;;;;;;;;;9.30;99.90;;;;;;4986737;28;19922;-63
2023/10/17 19:44:34;;;;;;;;;;;9.30;99.90;;;;;;4986747;28;19911;-63
2023/10/17 19:47:02;;;;;;;;;;;9.30;99.90;;;;;;4986013;28;20392;-62
2023/10/17 19:49:28;;;;;;;;;;;9.20;99.90;;;;;;4985921;28;19910;-62
2023/10/17 19:51:54;;;;;;;;;;;9.20;99.90;;;;;;4986850;28;19941;-63
2023/10/17 19:54:20;;;;;;;;;;;9.20;99.90;;;;;;4986864;28;19960;-63
2023/10/17 19:56:46;;;;;;;;;;;9.20;99.90;;;;;;4986814;28;19917;-63
2023/10/17 19:59:12;;;;;;;;;;;9.20;99.90;;;;;;4982336;28;20373;-61
2023/10/17 20:01:38;;;;;;;;;;;9.20;99.90;;;;;;4980411;28;19922;-62
2023/10/17 20:04:05;;;;;;;;;;;9.20;99.90;;;;;;4983236;28;20361;-61
2023/10/17 20:06:30;;;;;;;;;;;9.10;99.90;;;;;;4982757;28;19918;-62
2023/10/17 20:08:56;;;;;;;;;;;9.10;99.90;;;;;;4982700;28;19910;-63